sensor_id;sensor_type;location;lat;lon;timestamp;pressure;altitude;pressure_sealevel;temperature;humidity
43707;BME280;61348;53.392;-6.248;2023-03-08T00:02:05;98950.06;;;2.29;66.97
43707;BME280;61348;53.392;-6.248;2023-03-08T00:04:31;98951.31;;;2.32;67.17
43707;BME280;61348;53.392;-6.248;2023-03-08T00:06:59;98953.38;;;2.35;67.12
43707;BME280;61348;53.392;-6.248;2023-03-08T00:09:26;98942.56;;;2.38;67.12
43707;BME280;61348;53.392;-6.248;2023-03-08T00:11:52;98940.78;;;2.42;66.92
43707;BME280;61348;53.392;-6.248;2023-03-08T00:14:19;98934.66;;;2.45;67.10
43707;BME280;61348;53.392;-6.248;2023-03-08T00:16:47;98939.75;;;2.47;66.70
43707;BME280;61348;53.392;-6.248;2023-03-08T00:19:14;98929.78;;;2.51;66.75
43707;BME280;61348;53.392;-6.248;2023-03-08T00:21:41;98925.09;;;2.52;66.69
43707;BME280;61348;53.392;-6.248;2023-03-08T00:24:08;98922.03;;;2.53;67.14
43707;BME280;61348;53.392;-6.248;2023-03-08T00:26:35;98915.44;;;2.54;66.91
43707;BME280;61348;53.392;-6.248;2023-03-08T00:29:02;98915.44;;;2.54;66.77
43707;BME280;61348;53.392;-6.248;2023-03-08T00:31:29;98913.50;;;2.55;66.76
43707;BME280;61348;53.392;-6.248;2023-03-08T00:33:56;98913.19;;;2.56;66.64
43707;BME280;61348;53.392;-6.248;2023-03-08T00:36:22;98906.56;;;2.57;66.93
43707;BME280;61348;53.392;-6.248;2023-03-08T00:38:49;98903.50;;;2.59;66.60
43707;BME280;61348;53.392;-6.248;2023-03-08T00:41:17;98905.88;;;2.60;66.37
43707;BME280;61348;53.392;-6.248;2023-03-08T00:43:44;98898.16;;;2.62;66.24
43707;BME280;61348;53.392;-6.248;2023-03-08T00:46:12;98884.50;;;2.62;66.46
43707;BME280;61348;53.392;-6.248;2023-03-08T00:48:40;98886.09;;;2.63;66.35
43707;BME280;61348;53.392;-6.248;2023-03-08T00:51:08;98870.81;;;2.62;66.40
43707;BME280;61348;53.392;-6.248;2023-03-08T00:53:37;98867.66;;;2.60;66.34
43707;BME280;61348;53.392;-6.248;2023-03-08T00:56:04;98866.53;;;2.61;66.12
43707;BME280;61348;53.392;-6.248;2023-03-08T00:58:31;98854.00;;;2.60;66.07
43707;BME280;61348;53.392;-6.248;2023-03-08T01:00:58;98851.59;;;2.59;65.86
43707;BME280;61348;53.392;-6.248;2023-03-08T01:03:26;98854.00;;;2.60;66.29
43707;BME280;61348;53.392;-6.248;2023-03-08T01:05:56;98854.00;;;2.60;66.35
43707;BME280;61348;53.392;-6.248;2023-03-08T01:08:25;98841.13;;;2.61;65.79
43707;BME280;61348;53.392;-6.248;2023-03-08T01:10:56;98833.06;;;2.64;66.15
43707;BME280;61348;53.392;-6.248;2023-03-08T01:13:25;98832.72;;;2.66;66.19
43707;BME280;61348;53.392;-6.248;2023-03-08T01:15:52;98825.31;;;2.66;66.00
43707;BME280;61348;53.392;-6.248;2023-03-08T01:18:19;98821.47;;;2.67;66.07
43707;BME280;61348;53.392;-6.248;2023-03-08T01:21:03;98818.72;;;2.67;66.00
43707;BME280;61348;53.392;-6.248;2023-03-08T01:23:30;98807.81;;;2.67;66.15
43707;BME280;61348;53.392;-6.248;2023-03-08T01:26:11;98817.94;;;2.67;65.97
43707;BME280;61348;53.392;-6.248;2023-03-08T01:28:39;98811.66;;;2.66;66.00
43707;BME280;61348;53.392;-6.248;2023-03-08T01:31:15;98808.56;;;2.68;66.16
43707;BME280;61348;53.392;-6.248;2023-03-08T01:33:42;98805.06;;;2.67;65.78
43707;BME280;61348;53.392;-6.248;2023-03-08T01:36:12;98800.84;;;2.70;65.98
43707;BME280;61348;53.392;-6.248;2023-03-08T01:38:41;98790.25;;;2.68;65.58
43707;BME280;61348;53.392;-6.248;2023-03-08T01:41:13;98787.53;;;2.68;65.72
43707;BME280;61348;53.392;-6.248;2023-03-08T01:43:40;98787.53;;;2.68;65.77
43707;BME280;61348;53.392;-6.248;2023-03-08T01:46:13;98785.25;;;2.70;65.86
43707;BME280;61348;53.392;-6.248;2023-03-08T01:48:46;98788.31;;;2.69;65.77
43707;BME280;61348;53.392;-6.248;2023-03-08T01:51:17;98778.19;;;2.69;65.66
43707;BME280;61348;53.392;-6.248;2023-03-08T01:53:46;98773.53;;;2.70;65.86
43707;BME280;61348;53.392;-6.248;2023-03-08T01:56:14;98761.00;;;2.69;65.53
43707;BME280;61348;53.392;-6.248;2023-03-08T01:58:44;98761.81;;;2.69;65.89
43707;BME280;61348;53.392;-6.248;2023-03-08T02:01:13;98762.63;;;2.70;65.60
43707;BME280;61348;53.392;-6.248;2023-03-08T02:03:40;98761.91;;;2.73;65.79
43707;BME280;61348;53.392;-6.248;2023-03-08T02:06:07;98763.50;;;2.74;65.73
43707;BME280;61348;53.392;-6.248;2023-03-08T02:08:34;98756.13;;;2.74;65.80
43707;BME280;61348;53.392;-6.248;2023-03-08T02:11:01;98744.06;;;2.75;65.96
43707;BME280;61348;53.392;-6.248;2023-03-08T02:13:28;98744.06;;;2.75;65.71
43707;BME280;61348;53.392;-6.248;2023-03-08T02:15:56;98741.31;;;2.75;65.83
43707;BME280;61348;53.392;-6.248;2023-03-08T02:18:24;98734.72;;;2.76;65.88
43707;BME280;61348;53.392;-6.248;2023-03-08T02:20:50;98733.13;;;2.75;65.96
43707;BME280;61348;53.392;-6.248;2023-03-08T02:23:19;98722.97;;;2.76;66.00
43707;BME280;61348;53.392;-6.248;2023-03-08T02:25:58;98720.59;;;2.74;65.79
43707;BME280;61348;53.392;-6.248;2023-03-08T02:28:26;98715.13;;;2.74;65.69
43707;BME280;61348;53.392;-6.248;2023-03-08T02:30:54;98708.53;;;2.75;65.56
43707;BME280;61348;53.392;-6.248;2023-03-08T02:33:21;98717.50;;;2.76;65.22
43707;BME280;61348;53.392;-6.248;2023-03-08T02:35:49;98701.91;;;2.76;64.96
43707;BME280;61348;53.392;-6.248;2023-03-08T02:38:18;98697.25;;;2.77;65.26
43707;BME280;61348;53.392;-6.248;2023-03-08T02:40:45;98694.88;;;2.75;65.04
43707;BME280;61348;53.392;-6.248;2023-03-08T02:43:13;98689.41;;;2.75;65.12
43707;BME280;61348;53.392;-6.248;2023-03-08T02:45:40;98680.41;;;2.75;64.84
43707;BME280;61348;53.392;-6.248;2023-03-08T02:48:07;98673.78;;;2.76;65.08
43707;BME280;61348;53.392;-6.248;2023-03-08T02:50:34;98670.28;;;2.75;65.03
43707;BME280;61348;53.392;-6.248;2023-03-08T02:53:03;98669.50;;;2.75;64.75
43707;BME280;61348;53.392;-6.248;2023-03-08T02:55:30;98676.53;;;2.76;64.80
43707;BME280;61348;53.392;-6.248;2023-03-08T02:57:57;98660.50;;;2.74;64.73
43707;BME280;61348;53.392;-6.248;2023-03-08T03:03:03;98645.69;;;2.75;64.73
43707;BME280;61348;53.392;-6.248;2023-03-08T03:05:29;98647.63;;;2.75;64.60
43707;BME280;61348;53.392;-6.248;2023-03-08T03:07:56;98642.59;;;2.77;64.23
43707;BME280;61348;53.392;-6.248;2023-03-08T03:10:24;98645.34;;;2.77;64.57
43707;BME280;61348;53.392;-6.248;2023-03-08T03:12:51;98637.94;;;2.77;64.28
43707;BME280;61348;53.392;-6.248;2023-03-08T03:15:18;98644.53;;;2.76;64.65
43707;BME280;61348;53.392;-6.248;2023-03-08T03:17:45;98631.31;;;2.78;64.30
43707;BME280;61348;53.392;-6.248;2023-03-08T03:20:12;98639.53;;;2.78;64.75
43707;BME280;61348;53.392;-6.248;2023-03-08T03:22:39;98634.06;;;2.78;64.71
43707;BME280;61348;53.392;-6.248;2023-03-08T03:25:06;98627.47;;;2.79;64.62
43707;BME280;61348;53.392;-6.248;2023-03-08T03:27:32;98630.63;;;2.81;64.72
43707;BME280;61348;53.392;-6.248;2023-03-08T03:29:59;98617.41;;;2.83;64.35
43707;BME280;61348;53.392;-6.248;2023-03-08T03:32:26;98608.44;;;2.83;64.34
43707;BME280;61348;53.392;-6.248;2023-03-08T03:34:53;98618.69;;;2.86;64.30
43707;BME280;61348;53.392;-6.248;2023-03-08T03:37:20;98606.16;;;2.85;64.30
43707;BME280;61348;53.392;-6.248;2023-03-08T03:39:46;98596.81;;;2.86;64.39
43707;BME280;61348;53.392;-6.248;2023-03-08T03:42:13;98599.56;;;2.86;64.07
43707;BME280;61348;53.392;-6.248;2023-03-08T03:44:40;98604.66;;;2.87;64.39
43707;BME280;61348;53.392;-6.248;2023-03-08T03:47:07;98596.81;;;2.86;64.53
43707;BME280;61348;53.392;-6.248;2023-03-08T03:49:34;98586.66;;;2.86;64.45
43707;BME280;61348;53.392;-6.248;2023-03-08T03:52:01;98581.19;;;2.86;64.28
43707;BME280;61348;53.392;-6.248;2023-03-08T03:54:28;98587.84;;;2.85;64.55
43707;BME280;61348;53.392;-6.248;2023-03-08T03:56:55;98584.28;;;2.85;64.47
43707;BME280;61348;53.392;-6.248;2023-03-08T03:59:24;98572.56;;;2.84;64.26
43707;BME280;61348;53.392;-6.248;2023-03-08T04:01:52;98576.44;;;2.83;64.08
43707;BME280;61348;53.392;-6.248;2023-03-08T04:04:19;98579.63;;;2.85;64.07
43707;BME280;61348;53.392;-6.248;2023-03-08T04:06:45;98574.16;;;2.85;63.86
43707;BME280;61348;53.392;-6.248;2023-03-08T04:09:15;98580.44;;;2.86;63.69
43707;BME280;61348;53.392;-6.248;2023-03-08T04:11:42;98577.69;;;2.86;63.81
43707;BME280;61348;53.392;-6.248;2023-03-08T04:14:09;98575.75;;;2.86;64.11
43707;BME280;61348;53.392;-6.248;2023-03-08T04:16:37;98570.28;;;2.86;64.05
43707;BME280;61348;53.392;-6.248;2023-03-08T04:19:07;98560.16;;;2.87;64.09
43707;BME280;61348;53.392;-6.248;2023-03-08T04:21:35;98559.34;;;2.86;64.23
43707;BME280;61348;53.392;-6.248;2023-03-08T04:24:03;98564.81;;;2.86;64.12
43707;BME280;61348;53.392;-6.248;2023-03-08T04:26:30;98553.88;;;2.86;64.22
43707;BME280;61348;53.392;-6.248;2023-03-08T04:28:57;98553.53;;;2.88;64.01
43707;BME280;61348;53.392;-6.248;2023-03-08T04:31:26;98544.91;;;2.86;64.28
43707;BME280;61348;53.392;-6.248;2023-03-08T04:33:54;98546.84;;;2.85;63.88
43707;BME280;61348;53.392;-6.248;2023-03-08T04:36:21;98549.56;;;2.85;63.92
43707;BME280;61348;53.392;-6.248;2023-03-08T04:38:49;98542.06;;;2.82;64.01
43707;BME280;61348;53.392;-6.248;2023-03-08T04:41:17;98540.47;;;2.81;63.75
43707;BME280;61348;53.392;-6.248;2023-03-08T04:43:50;98529.53;;;2.81;63.97
43707;BME280;61348;53.392;-6.248;2023-03-08T04:46:21;98536.16;;;2.80;63.81
43707;BME280;61348;53.392;-6.248;2023-03-08T04:48:49;98524.75;;;2.78;63.66
43707;BME280;61348;53.392;-6.248;2023-03-08T04:51:19;98524.00;;;2.78;63.53
43707;BME280;61348;53.392;-6.248;2023-03-08T04:53:45;98522.38;;;2.77;63.26
43707;BME280;61348;53.392;-6.248;2023-03-08T04:56:14;98517.63;;;2.74;63.43
43707;BME280;61348;53.392;-6.248;2023-03-08T04:58:41;98537.09;;;2.72;63.66
43707;BME280;61348;53.392;-6.248;2023-03-08T05:01:16;98533.91;;;2.70;63.55
43707;BME280;61348;53.392;-6.248;2023-03-08T05:03:44;98533.91;;;2.70;63.76
43707;BME280;61348;53.392;-6.248;2023-03-08T05:06:11;98537.78;;;2.69;63.37
43707;BME280;61348;53.392;-6.248;2023-03-08T05:08:40;98519.00;;;2.68;63.37
43707;BME280;61348;53.392;-6.248;2023-03-08T05:11:07;98519.78;;;2.68;63.38
43707;BME280;61348;53.392;-6.248;2023-03-08T05:13:36;98517.44;;;2.67;63.21
43707;BME280;61348;53.392;-6.248;2023-03-08T05:16:05;98508.44;;;2.66;63.13
43707;BME280;61348;53.392;-6.248;2023-03-08T05:18:33;98504.09;;;2.65;63.00
43707;BME280;61348;53.392;-6.248;2023-03-08T05:21:02;98500.94;;;2.63;63.17
43707;BME280;61348;53.392;-6.248;2023-03-08T05:23:30;98498.56;;;2.62;62.95
43707;BME280;61348;53.392;-6.248;2023-03-08T05:25:58;98495.34;;;2.60;62.96
43707;BME280;61348;53.392;-6.248;2023-03-08T05:28:28;98512.91;;;2.59;62.95
43707;BME280;61348;53.392;-6.248;2023-03-08T05:31:07;98492.19;;;2.58;62.71
43707;BME280;61348;53.392;-6.248;2023-03-08T05:33:34;98492.19;;;2.58;62.63
43707;BME280;61348;53.392;-6.248;2023-03-08T05:36:02;98492.97;;;2.58;62.37
43707;BME280;61348;53.392;-6.248;2023-03-08T05:38:30;98500.03;;;2.59;62.22
43707;BME280;61348;53.392;-6.248;2023-03-08T05:41:02;98494.59;;;2.59;62.45
43707;BME280;61348;53.392;-6.248;2023-03-08T05:43:30;98486.81;;;2.61;62.05
43707;BME280;61348;53.392;-6.248;2023-03-08T05:46:02;98473.63;;;2.63;62.01
43707;BME280;61348;53.392;-6.248;2023-03-08T05:48:30;98476.78;;;2.65;62.14
43707;BME280;61348;53.392;-6.248;2023-03-08T05:50:57;98483.03;;;2.66;62.06
43707;BME280;61348;53.392;-6.248;2023-03-08T05:53:24;98485.44;;;2.67;62.26
43707;BME280;61348;53.392;-6.248;2023-03-08T05:55:51;98473.34;;;2.68;62.45
43707;BME280;61348;53.392;-6.248;2023-03-08T05:58:17;98467.56;;;2.70;62.05
43707;BME280;61348;53.392;-6.248;2023-03-08T06:00:44;98463.66;;;2.71;62.43
43707;BME280;61348;53.392;-6.248;2023-03-08T06:03:11;98461.75;;;2.71;62.21
43707;BME280;61348;53.392;-6.248;2023-03-08T06:05:38;98468.81;;;2.72;62.09
43707;BME280;61348;53.392;-6.248;2023-03-08T06:08:04;98461.38;;;2.73;62.08
43707;BME280;61348;53.392;-6.248;2023-03-08T06:10:31;98462.97;;;2.74;62.16
43707;BME280;61348;53.392;-6.248;2023-03-08T06:12:58;98469.69;;;2.76;62.19
43707;BME280;61348;53.392;-6.248;2023-03-08T06:15:25;98468.09;;;2.75;62.28
43707;BME280;61348;53.392;-6.248;2023-03-08T06:17:52;98465.38;;;2.75;62.21
43707;BME280;61348;53.392;-6.248;2023-03-08T06:20:20;98457.50;;;2.74;62.10
43707;BME280;61348;53.392;-6.248;2023-03-08T06:22:47;98457.50;;;2.74;62.49
43707;BME280;61348;53.392;-6.248;2023-03-08T06:25:14;98460.59;;;2.72;62.54
43707;BME280;61348;53.392;-6.248;2023-03-08T06:27:40;98456.28;;;2.71;62.64
43707;BME280;61348;53.392;-6.248;2023-03-08T06:30:08;98451.16;;;2.70;62.54
43707;BME280;61348;53.392;-6.248;2023-03-08T06:32:34;98449.56;;;2.69;62.31
43707;BME280;61348;53.392;-6.248;2023-03-08T06:35:03;98460.06;;;2.67;62.44
43707;BME280;61348;53.392;-6.248;2023-03-08T06:37:34;98443.22;;;2.65;62.42
43707;BME280;61348;53.392;-6.248;2023-03-08T06:40:01;98444.00;;;2.65;62.31
43707;BME280;61348;53.392;-6.248;2023-03-08T06:42:29;98456.88;;;2.65;62.13
43707;BME280;61348;53.392;-6.248;2023-03-08T06:45:08;98457.22;;;2.63;62.22
43707;BME280;61348;53.392;-6.248;2023-03-08T06:47:34;98454.50;;;2.63;62.24
43707;BME280;61348;53.392;-6.248;2023-03-08T06:50:01;98450.97;;;2.63;62.55
43707;BME280;61348;53.392;-6.248;2023-03-08T06:52:28;98453.00;;;2.66;62.32
43707;BME280;61348;53.392;-6.248;2023-03-08T06:55:00;98455.41;;;2.67;62.59
43707;BME280;61348;53.392;-6.248;2023-03-08T06:57:27;98451.94;;;2.70;62.88
43707;BME280;61348;53.392;-6.248;2023-03-08T06:59:53;98446.94;;;2.72;63.33
43707;BME280;61348;53.392;-6.248;2023-03-08T07:02:20;98445.78;;;2.73;63.41
43707;BME280;61348;53.392;-6.248;2023-03-08T07:04:47;98443.53;;;2.75;63.81
43707;BME280;61348;53.392;-6.248;2023-03-08T07:07:18;98441.22;;;2.77;63.64
43707;BME280;61348;53.392;-6.248;2023-03-08T07:09:45;98454.53;;;2.79;63.70
43707;BME280;61348;53.392;-6.248;2023-03-08T07:12:11;98442.47;;;2.80;63.80
43707;BME280;61348;53.392;-6.248;2023-03-08T07:14:38;98446.00;;;2.80;64.07
43707;BME280;61348;53.392;-6.248;2023-03-08T07:17:05;98452.22;;;2.81;64.17
43707;BME280;61348;53.392;-6.248;2023-03-08T07:19:32;98449.16;;;2.82;64.57
43707;BME280;61348;53.392;-6.248;2023-03-08T07:21:59;98442.53;;;2.83;64.30
43707;BME280;61348;53.392;-6.248;2023-03-08T07:24:26;98460.53;;;2.84;64.61
43707;BME280;61348;53.392;-6.248;2023-03-08T07:26:53;98450.72;;;2.83;64.71
43707;BME280;61348;53.392;-6.248;2023-03-08T07:29:19;98451.19;;;2.85;64.53
43707;BME280;61348;53.392;-6.248;2023-03-08T07:31:46;98460.97;;;2.86;64.84
43707;BME280;61348;53.392;-6.248;2023-03-08T07:34:13;98460.97;;;2.86;64.64
43707;BME280;61348;53.392;-6.248;2023-03-08T07:36:39;98464.16;;;2.88;64.41
43707;BME280;61348;53.392;-6.248;2023-03-08T07:39:06;98459.41;;;2.85;64.62
43707;BME280;61348;53.392;-6.248;2023-03-08T07:41:34;98458.94;;;2.83;64.84
43707;BME280;61348;53.392;-6.248;2023-03-08T07:44:00;98458.50;;;2.81;64.63
43707;BME280;61348;53.392;-6.248;2023-03-08T07:46:28;98462.38;;;2.80;64.61
43707;BME280;61348;53.392;-6.248;2023-03-08T07:48:55;98465.88;;;2.81;64.82
43707;BME280;61348;53.392;-6.248;2023-03-08T07:51:22;98467.84;;;2.80;64.44
43707;BME280;61348;53.392;-6.248;2023-03-08T07:53:50;98466.34;;;2.83;64.51
43707;BME280;61348;53.392;-6.248;2023-03-08T07:56:17;98476.59;;;2.86;64.33
43707;BME280;61348;53.392;-6.248;2023-03-08T07:58:43;98469.63;;;2.88;64.73
43707;BME280;61348;53.392;-6.248;2023-03-08T08:01:12;98475.19;;;2.92;64.65
43707;BME280;61348;53.392;-6.248;2023-03-08T08:03:39;98469.38;;;2.93;64.52
43707;BME280;61348;53.392;-6.248;2023-03-08T08:06:06;98476.53;;;2.98;64.18
43707;BME280;61348;53.392;-6.248;2023-03-08T08:08:33;98487.19;;;3.03;64.32
43707;BME280;61348;53.392;-6.248;2023-03-08T08:11:00;98484.19;;;3.08;63.92
43707;BME280;61348;53.392;-6.248;2023-03-08T08:13:27;98485.09;;;3.12;63.99
43707;BME280;61348;53.392;-6.248;2023-03-08T08:16:00;98480.50;;;3.16;63.68
43707;BME280;61348;53.392;-6.248;2023-03-08T08:18:27;98476.28;;;3.19;63.81
43707;BME280;61348;53.392;-6.248;2023-03-08T08:21:05;98478.31;;;3.22;63.36
43707;BME280;61348;53.392;-6.248;2023-03-08T08:23:32;98476.44;;;3.26;63.33
43707;BME280;61348;53.392;-6.248;2023-03-08T08:26:04;98478.47;;;3.29;62.61
43707;BME280;61348;53.392;-6.248;2023-03-08T08:28:31;98479.38;;;3.33;62.23
43707;BME280;61348;53.392;-6.248;2023-03-08T08:31:00;98468.16;;;3.38;62.07
43707;BME280;61348;53.392;-6.248;2023-03-08T08:33:28;98464.03;;;3.44;62.20
43707;BME280;61348;53.392;-6.248;2023-03-08T08:35:55;98476.28;;;3.50;62.33
43707;BME280;61348;53.392;-6.248;2023-03-08T08:38:24;98470.53;;;3.55;62.05
43707;BME280;61348;53.392;-6.248;2023-03-08T08:40:51;98469.94;;;3.61;61.82
43707;BME280;61348;53.392;-6.248;2023-03-08T08:43:18;98467.28;;;3.65;61.32
43707;BME280;61348;53.392;-6.248;2023-03-08T08:45:46;98459.94;;;3.69;61.08
43707;BME280;61348;53.392;-6.248;2023-03-08T08:48:14;98456.13;;;3.74;61.27
43707;BME280;61348;53.392;-6.248;2023-03-08T08:50:41;98455.94;;;3.82;60.97
43707;BME280;61348;53.392;-6.248;2023-03-08T08:53:08;98456.47;;;3.88;60.55
43707;BME280;61348;53.392;-6.248;2023-03-08T08:55:35;98459.72;;;3.93;60.23
43707;BME280;61348;53.392;-6.248;2023-03-08T08:58:06;98460.16;;;3.95;60.24
43707;BME280;61348;53.392;-6.248;2023-03-08T09:00:34;98464.06;;;3.94;60.04
43707;BME280;61348;53.392;-6.248;2023-03-08T09:03:02;98459.72;;;3.93;58.95
43707;BME280;61348;53.392;-6.248;2023-03-08T09:05:30;98463.69;;;3.96;59.06
43707;BME280;61348;53.392;-6.248;2023-03-08T09:07:58;98463.78;;;3.99;58.70
43707;BME280;61348;53.392;-6.248;2023-03-08T09:10:29;98457.59;;;4.02;58.19
43707;BME280;61348;53.392;-6.248;2023-03-08T09:12:56;98459.16;;;4.03;57.81
43707;BME280;61348;53.392;-6.248;2023-03-08T09:15:25;98446.69;;;4.06;57.50
43707;BME280;61348;53.392;-6.248;2023-03-08T09:17:52;98447.94;;;4.08;57.58
43707;BME280;61348;53.392;-6.248;2023-03-08T09:20:19;98440.50;;;4.09;56.85
43707;BME280;61348;53.392;-6.248;2023-03-08T09:22:49;98446.78;;;4.09;56.68
43707;BME280;61348;53.392;-6.248;2023-03-08T09:25:16;98439.00;;;4.11;56.51
43707;BME280;61348;53.392;-6.248;2023-03-08T09:27:47;98439.44;;;4.13;55.82
43707;BME280;61348;53.392;-6.248;2023-03-08T09:30:15;98443.47;;;4.19;55.61
43707;BME280;61348;53.392;-6.248;2023-03-08T09:32:42;98447.44;;;4.22;55.67
43707;BME280;61348;53.392;-6.248;2023-03-08T09:35:09;98444.78;;;4.25;55.78
43707;BME280;61348;53.392;-6.248;2023-03-08T09:37:36;98444.59;;;4.34;55.51
43707;BME280;61348;53.392;-6.248;2023-03-08T09:40:03;98442.31;;;4.40;55.77
43707;BME280;61348;53.392;-6.248;2023-03-08T09:42:35;98428.63;;;4.40;54.97
43707;BME280;61348;53.392;-6.248;2023-03-08T09:45:17;98420.50;;;4.43;54.83
43707;BME280;61348;53.392;-6.248;2023-03-08T09:50:20;98427.31;;;4.53;54.98
43707;BME280;61348;53.392;-6.248;2023-03-08T09:53:10;98419.19;;;4.56;55.00
43707;BME280;61348;53.392;-6.248;2023-03-08T09:55:53;98429.13;;;4.64;54.94
43707;BME280;61348;53.392;-6.248;2023-03-08T10:01:12;98422.13;;;4.67;54.44
43707;BME280;61348;53.392;-6.248;2023-03-08T10:03:59;98428.72;;;4.62;53.56
43707;BME280;61348;53.392;-6.248;2023-03-08T10:06:36;98427.50;;;4.60;54.10
43707;BME280;61348;53.392;-6.248;2023-03-08T10:14:47;98433.75;;;4.60;54.21
43707;BME280;61348;53.392;-6.248;2023-03-08T10:17:21;98429.22;;;4.68;54.12
43707;BME280;61348;53.392;-6.248;2023-03-08T10:19:56;98432.38;;;4.70;54.52
43707;BME280;61348;53.392;-6.248;2023-03-08T10:22:27;98436.72;;;4.71;54.61
43707;BME280;61348;53.392;-6.248;2023-03-08T10:25:01;98426.88;;;4.70;53.69
43707;BME280;61348;53.392;-6.248;2023-03-08T10:27:32;98439.75;;;4.66;53.94
43707;BME280;61348;53.392;-6.248;2023-03-08T10:30:01;98430.66;;;4.62;53.87
43707;BME280;61348;53.392;-6.248;2023-03-08T10:32:28;98431.38;;;4.59;53.92
43707;BME280;61348;53.392;-6.248;2023-03-08T10:35:02;98446.28;;;4.61;53.90
43707;BME280;61348;53.392;-6.248;2023-03-08T10:37:31;98444.44;;;4.65;53.66
43707;BME280;61348;53.392;-6.248;2023-03-08T10:40:00;98437.44;;;4.68;53.65
43707;BME280;61348;53.392;-6.248;2023-03-08T10:42:32;98435.25;;;4.77;53.61
43707;BME280;61348;53.392;-6.248;2023-03-08T10:47:38;98433.63;;;4.95;54.00
43707;BME280;61348;53.392;-6.248;2023-03-08T10:50:17;98436.94;;;5.04;54.04
43707;BME280;61348;53.392;-6.248;2023-03-08T10:52:49;98446.78;;;5.09;54.19
43707;BME280;61348;53.392;-6.248;2023-03-08T10:55:26;98448.00;;;5.11;54.24
43707;BME280;61348;53.392;-6.248;2023-03-08T10:57:59;98446.56;;;5.17;53.96
43707;BME280;61348;53.392;-6.248;2023-03-08T11:03:22;98462.41;;;5.27;54.65
43707;BME280;61348;53.392;-6.248;2023-03-08T11:06:07;98437.38;;;5.29;54.81
43707;BME280;61348;53.392;-6.248;2023-03-08T11:08:40;98459.25;;;5.25;54.56
43707;BME280;61348;53.392;-6.248;2023-03-08T11:11:16;98447.84;;;5.23;54.95
43707;BME280;61348;53.392;-6.248;2023-03-08T11:13:45;98447.53;;;5.28;55.35
43707;BME280;61348;53.392;-6.248;2023-03-08T11:22:09;98440.72;;;5.41;55.61
43707;BME280;61348;53.392;-6.248;2023-03-08T11:28:02;98439.72;;;5.30;55.85
43707;BME280;61348;53.392;-6.248;2023-03-08T11:30:57;98433.72;;;5.21;56.22
43707;BME280;61348;53.392;-6.248;2023-03-08T11:33:35;98428.56;;;5.20;56.57
43707;BME280;61348;53.392;-6.248;2023-03-08T11:38:40;98416.13;;;5.48;56.63
43707;BME280;61348;53.392;-6.248;2023-03-08T11:49:04;98409.66;;;5.86;56.14
43707;BME280;61348;53.392;-6.248;2023-03-08T11:51:40;98410.75;;;5.82;56.08
43707;BME280;61348;53.392;-6.248;2023-03-08T11:57:13;98410.88;;;5.89;55.82
43707;BME280;61348;53.392;-6.248;2023-03-08T11:59:58;98412.88;;;5.92;55.44
43707;BME280;61348;53.392;-6.248;2023-03-08T12:02:40;98405.47;;;5.96;56.06
43707;BME280;61348;53.392;-6.248;2023-03-08T12:07:38;98423.78;;;6.14;55.38
43707;BME280;61348;53.392;-6.248;2023-03-08T12:10:27;98420.28;;;6.14;55.14
43707;BME280;61348;53.392;-6.248;2023-03-08T12:13:13;98415.84;;;6.06;54.89
43707;BME280;61348;53.392;-6.248;2023-03-08T12:16:01;98411.84;;;6.00;54.91
43707;BME280;61348;53.392;-6.248;2023-03-08T12:18:44;98408.66;;;5.98;54.81
43707;BME280;61348;53.392;-6.248;2023-03-08T12:21:25;98411.41;;;5.98;54.73
43707;BME280;61348;53.392;-6.248;2023-03-08T12:29:44;98417.13;;;5.86;54.19
43707;BME280;61348;53.392;-6.248;2023-03-08T12:32:15;98411.19;;;5.84;54.20
43707;BME280;61348;53.392;-6.248;2023-03-08T12:34:45;98393.59;;;5.85;54.20
43707;BME280;61348;53.392;-6.248;2023-03-08T12:40:00;98391.25;;;5.87;54.28
43707;BME280;61348;53.392;-6.248;2023-03-08T12:42:39;98386.59;;;5.91;53.88
43707;BME280;61348;53.392;-6.248;2023-03-08T12:47:33;98390.28;;;6.02;54.19
43707;BME280;61348;53.392;-6.248;2023-03-08T12:50:08;98390.09;;;6.18;53.98
43707;BME280;61348;53.392;-6.248;2023-03-08T12:52:36;98388.66;;;6.27;54.11
43707;BME280;61348;53.392;-6.248;2023-03-08T12:55:17;98380.81;;;6.29;54.02
43707;BME280;61348;53.392;-6.248;2023-03-08T12:57:52;98389.59;;;6.42;54.14
43707;BME280;61348;53.392;-6.248;2023-03-08T13:00:32;98399.38;;;6.39;54.06
43707;BME280;61348;53.392;-6.248;2023-03-08T13:05:41;98398.13;;;6.33;53.67
43707;BME280;61348;53.392;-6.248;2023-03-08T13:10:55;98392.41;;;6.45;53.69
43707;BME280;61348;53.392;-6.248;2023-03-08T13:18:44;98385.47;;;6.25;53.15
43707;BME280;61348;53.392;-6.248;2023-03-08T13:21:34;98383.38;;;6.15;52.03
43707;BME280;61348;53.392;-6.248;2023-03-08T13:24:18;98389.94;;;6.07;52.16
43707;BME280;61348;53.392;-6.248;2023-03-08T13:29:33;98381.63;;;6.00;52.55
43707;BME280;61348;53.392;-6.248;2023-03-08T13:32:08;98380.47;;;6.01;52.33
43707;BME280;61348;53.392;-6.248;2023-03-08T13:34:37;98380.56;;;6.08;52.05
43707;BME280;61348;53.392;-6.248;2023-03-08T13:37:04;98378.97;;;6.07;51.79
43707;BME280;61348;53.392;-6.248;2023-03-08T13:39:31;98389.19;;;6.10;51.88
43707;BME280;61348;53.392;-6.248;2023-03-08T13:42:10;98379.88;;;6.18;52.27
43707;BME280;61348;53.392;-6.248;2023-03-08T13:44:37;98389.66;;;6.16;51.49
43707;BME280;61348;53.392;-6.248;2023-03-08T13:47:17;98382.22;;;6.16;51.93
43707;BME280;61348;53.392;-6.248;2023-03-08T13:49:45;98380.63;;;6.15;51.71
43707;BME280;61348;53.392;-6.248;2023-03-08T13:52:22;98390.81;;;6.11;51.49
43707;BME280;61348;53.392;-6.248;2023-03-08T13:54:54;98376.13;;;6.00;51.15
43707;BME280;61348;53.392;-6.248;2023-03-08T13:57:27;98375.28;;;5.96;51.38
43707;BME280;61348;53.392;-6.248;2023-03-08T13:59:57;98375.00;;;6.04;51.68
43707;BME280;61348;53.392;-6.248;2023-03-08T14:02:30;98367.28;;;6.13;52.08
43707;BME280;61348;53.392;-6.248;2023-03-08T14:04:57;98367.31;;;6.17;51.74
43707;BME280;61348;53.392;-6.248;2023-03-08T14:07:29;98362.25;;;6.19;52.14
43707;BME280;61348;53.392;-6.248;2023-03-08T14:09:58;98372.13;;;6.24;52.09
43707;BME280;61348;53.392;-6.248;2023-03-08T14:12:28;98366.16;;;6.18;50.95
43707;BME280;61348;53.392;-6.248;2023-03-08T14:14:59;98363.22;;;6.04;50.65
43707;BME280;61348;53.392;-6.248;2023-03-08T14:17:28;98363.13;;;5.97;50.52
43707;BME280;61348;53.392;-6.248;2023-03-08T14:20:00;98350.56;;;5.96;50.83
43707;BME280;61348;53.392;-6.248;2023-03-08T14:22:37;98361.47;;;5.89;51.03